createdAt,value
2018-11-23T00:00:40.079Z,82.27
2018-11-23T00:05:42.409Z,82.50
2018-11-23T00:10:59.644Z,84.17
2018-11-23T00:16:01.955Z,79.13
2018-11-23T00:21:04.625Z,84.83
2018-11-23T00:26:06.912Z,78.70
2018-11-23T00:31:09.229Z,76.27
2018-11-23T00:36:11.631Z,79.03
2018-11-23T00:41:13.984Z,74.47
2018-11-23T00:46:16.367Z,78.00
2018-11-23T00:51:18.661Z,75.83
2018-11-23T00:56:20.938Z,75.73
2018-11-23T01:01:23.228Z,73.90
2018-11-23T01:06:25.558Z,72.30
2018-11-23T01:11:27.832Z,73.63
2018-11-23T01:16:30.106Z,74.43
2018-11-23T01:21:32.482Z,72.20
2018-11-23T01:26:34.879Z,65.67
2018-11-23T01:31:37.210Z,78.87
2018-11-23T01:36:39.500Z,71.77
2018-11-23T01:41:41.786Z,70.40
2018-11-23T01:46:44.134Z,70.37
2018-11-23T01:51:46.503Z,67.17
2018-11-23T01:56:48.809Z,63.70
2018-11-23T02:01:51.209Z,73.43
2018-11-23T02:06:53.693Z,69.40
2018-11-23T02:11:55.946Z,68.90
2018-11-23T02:16:58.215Z,67.03
2018-11-23T02:22:00.537Z,63.93
2018-11-23T02:27:02.804Z,61.50
2018-11-23T02:32:05.344Z,57.00
2018-11-23T02:37:07.705Z,61.20
2018-11-23T02:42:09.976Z,53.57
2018-11-23T02:47:12.241Z,50.03
2018-11-23T02:52:15.300Z,50.50
2018-11-23T02:57:17.613Z,46.53
2018-11-23T03:02:19.892Z,42.37
2018-11-23T03:07:22.154Z,46.33
2018-11-23T03:12:24.452Z,41.63
2018-11-23T03:17:26.736Z,43.53
2018-11-23T03:22:29.172Z,45.50
2018-11-23T03:27:31.440Z,44.87
2018-11-23T03:32:33.740Z,43.50
2018-11-23T03:37:36.187Z,39.87
2018-11-23T03:42:38.570Z,42.83
2018-11-23T03:47:41.579Z,39.73
2018-11-23T03:52:44.270Z,39.47
2018-11-23T03:57:46.560Z,39.07
2018-11-23T04:02:49.476Z,38.73
2018-11-23T04:07:51.745Z,37.47
2018-11-23T04:12:54.140Z,36.70
2018-11-23T04:17:56.528Z,37.23
2018-11-23T04:22:58.911Z,35.63
2018-11-23T04:28:01.291Z,32.07
2018-11-23T04:33:04.203Z,31.10
2018-11-23T04:38:07.755Z,31.90
2018-11-23T04:43:10.050Z,29.30
2018-11-23T04:48:12.345Z,32.57
2018-11-23T04:53:14.883Z,32.00
2018-11-23T04:58:17.169Z,30.27
2018-11-23T05:03:19.552Z,31.57
2018-11-23T05:08:21.816Z,29.70
2018-11-23T05:13:24.206Z,29.37
2018-11-23T05:18:26.490Z,28.90
2018-11-23T05:23:28.806Z,27.17
2018-11-23T05:28:31.147Z,27.73
2018-11-23T05:33:33.470Z,27.63
2018-11-23T05:38:36.780Z,28.63
2018-11-23T05:43:39.076Z,28.20
2018-11-23T05:48:41.364Z,30.53
2018-11-23T05:53:43.752Z,27.73
2018-11-23T05:58:46.022Z,28.50
2018-11-23T06:03:48.296Z,30.10
2018-11-23T06:08:50.990Z,28.03
2018-11-23T06:13:53.304Z,29.60
2018-11-23T06:18:55.764Z,28.37
2018-11-23T06:23:58.096Z,30.27
2018-11-23T06:29:00.466Z,28.17
2018-11-23T06:34:02.754Z,30.90
2018-11-23T06:39:07.405Z,28.67
2018-11-23T06:44:09.736Z,32.17
2018-11-23T06:49:12.017Z,32.20
2018-11-23T06:54:14.605Z,29.50
2018-11-23T06:59:16.719Z,36.10
2018-11-23T07:04:19.029Z,34.50
2018-11-23T07:09:21.307Z,41.43
2018-11-23T07:14:23.579Z,36.27
2018-11-23T07:19:25.964Z,37.43
2018-11-23T07:24:28.394Z,38.30
2018-11-23T07:29:30.672Z,40.27
2018-11-23T07:34:32.986Z,43.40
2018-11-23T07:39:46.864Z,40.60
2018-11-23T07:44:49.200Z,44.90
2018-11-23T07:49:51.546Z,43.20
2018-11-23T07:54:53.908Z,43.60
2018-11-23T07:59:56.197Z,42.57
2018-11-23T08:04:58.487Z,43.17
2018-11-23T08:10:00.296Z,43.97
2018-11-23T08:15:02.648Z,41.67
2018-11-23T08:20:05.633Z,44.63
2018-11-23T08:25:08.908Z,42.37
2018-11-23T08:30:30.486Z,41.00
2018-11-23T08:35:32.857Z,45.23
2018-11-23T08:40:35.173Z,40.97
2018-11-23T08:45:37.461Z,42.33
2018-11-23T08:50:39.735Z,40.30
2018-11-23T08:55:42.116Z,38.97
2018-11-23T09:00:44.409Z,34.37
2018-11-23T09:05:46.697Z,35.23
2018-11-23T09:10:49.046Z,33.87
2018-11-23T09:15:51.342Z,35.60
2018-11-23T09:20:53.942Z,32.97
2018-11-23T09:25:56.287Z,33.57
2018-11-23T09:30:58.696Z,31.73
2018-11-23T09:36:00.966Z,30.83
2018-11-23T09:41:03.312Z,38.07
2018-11-23T09:46:05.998Z,34.23
2018-11-23T09:51:08.358Z,36.73
2018-11-23T09:56:10.786Z,35.37
2018-11-23T10:01:13.075Z,34.70
2018-11-23T10:06:15.356Z,34.93
2018-11-23T10:11:17.651Z,36.93
2018-11-23T10:16:20.296Z,40.60
2018-11-23T10:21:22.562Z,33.63
2018-11-23T10:26:24.923Z,34.83
2018-11-23T10:31:27.233Z,36.43
2018-11-23T10:36:29.538Z,36.97
2018-11-23T10:41:31.833Z,38.13
2018-11-23T10:46:34.145Z,37.53
2018-11-23T10:51:36.706Z,33.43
2018-11-23T10:56:39.106Z,38.27
2018-11-23T11:01:46.976Z,32.77
2018-11-23T11:06:49.931Z,35.70
2018-11-23T11:11:52.203Z,33.33
2018-11-23T11:16:54.478Z,34.37
2018-11-23T11:21:56.785Z,32.50
2018-11-23T11:26:59.377Z,33.63
2018-11-23T11:32:01.716Z,31.97
2018-11-23T11:37:04.254Z,34.97
2018-11-23T11:42:07.789Z,33.77
2018-11-23T11:47:10.244Z,32.47
2018-11-23T11:52:12.559Z,29.53
2018-11-23T11:57:15.047Z,33.40
2018-11-23T12:02:17.376Z,33.40
2018-11-23T12:07:19.642Z,32.07
2018-11-23T12:12:21.952Z,36.23
2018-11-23T12:17:24.305Z,31.00
2018-11-23T12:22:26.595Z,30.63
2018-11-23T12:27:29.500Z,30.93
2018-11-23T12:32:31.449Z,29.93
2018-11-23T12:37:33.767Z,30.93
2018-11-23T12:42:36.101Z,31.00
2018-11-23T12:47:38.637Z,31.13
2018-11-23T12:52:40.942Z,31.47
2018-11-23T12:57:43.551Z,29.30
2018-11-23T13:02:47.020Z,31.73
2018-11-23T13:07:50.106Z,31.57
2018-11-23T13:12:52.901Z,32.70
2018-11-23T13:17:55.805Z,31.83
2018-11-23T13:22:58.123Z,31.20
2018-11-23T13:28:00.681Z,34.07
2018-11-23T13:33:03.180Z,31.63
2018-11-23T13:38:05.480Z,31.67
2018-11-23T13:43:07.779Z,31.40
2018-11-23T13:48:10.075Z,34.20
2018-11-23T13:53:13.493Z,31.80
2018-11-23T13:58:15.836Z,32.33
2018-11-23T14:03:18.113Z,31.77
2018-11-23T14:08:20.557Z,28.57
2018-11-23T14:13:22.859Z,31.17
2018-11-23T14:18:25.248Z,32.43
2018-11-23T14:23:27.648Z,32.70
2018-11-23T14:28:30.029Z,32.20
2018-11-23T14:33:33.513Z,30.17
2018-11-23T14:38:36.357Z,33.03
2018-11-23T14:43:38.686Z,31.17
2018-11-23T14:48:41.168Z,33.67
2018-11-23T14:53:43.513Z,33.87
2018-11-23T14:58:46.153Z,32.70
2018-11-23T15:03:49.184Z,32.63
2018-11-23T15:08:52.061Z,36.40
2018-11-23T15:13:54.521Z,42.73
2018-11-23T15:18:56.880Z,40.17
2018-11-23T15:24:00.922Z,43.03
2018-11-23T15:29:02.594Z,43.47
2018-11-23T15:34:05.332Z,45.00
2018-11-23T15:39:09.777Z,40.37
2018-11-23T15:44:12.097Z,42.57
2018-11-23T15:49:14.484Z,43.77
2018-11-23T15:54:16.837Z,48.77
2018-11-23T15:59:20.172Z,45.90
2018-11-23T16:04:25.160Z,40.80
2018-11-23T16:09:28.219Z,40.37
2018-11-23T16:14:32.633Z,40.33
2018-11-23T16:19:35.040Z,40.57
2018-11-23T16:24:37.674Z,40.50
2018-11-23T16:29:40.118Z,42.40
2018-11-23T16:34:42.878Z,44.07
2018-11-23T16:39:45.463Z,44.60
2018-11-23T16:44:47.827Z,42.97
2018-11-23T16:49:50.452Z,47.63
2018-11-23T16:54:53.157Z,52.47
2018-11-23T16:59:57.106Z,52.37
2018-11-23T17:04:59.399Z,52.40
2018-11-23T17:10:02.260Z,49.77
2018-11-23T17:15:05.877Z,53.23
2018-11-23T17:20:11.359Z,56.03
2018-11-23T17:25:15.175Z,55.13
2018-11-23T17:30:23.123Z,50.77
2018-11-23T17:35:25.604Z,53.53
2018-11-23T17:40:29.684Z,54.57
2018-11-23T17:45:32.553Z,65.70
2018-11-23T17:50:36.044Z,53.07
2018-11-23T17:55:38.439Z,55.53
2018-11-23T18:00:41.712Z,50.57
2018-11-23T18:05:44.067Z,53.30
2018-11-23T18:10:46.384Z,50.40
2018-11-23T18:15:48.784Z,53.33
2018-11-23T18:20:51.139Z,50.03
2018-11-23T18:25:53.527Z,53.97
2018-11-23T18:30:55.963Z,52.33
2018-11-23T18:35:58.504Z,49.57
2018-11-23T18:41:01.330Z,49.80
2018-11-23T18:46:03.776Z,51.33
2018-11-23T18:51:06.159Z,48.37
2018-11-23T18:56:09.474Z,50.23
2018-11-23T19:01:12.204Z,44.90
2018-11-23T19:06:14.522Z,44.43
2018-11-23T19:11:16.960Z,48.43
2018-11-23T19:16:19.264Z,46.83
2018-11-23T19:21:22.322Z,47.10
2018-11-23T19:26:24.725Z,49.93
2018-11-23T19:31:27.424Z,46.17
2018-11-23T19:36:29.962Z,47.50
2018-11-23T19:41:32.461Z,44.67
2018-11-23T19:46:34.805Z,48.30
2018-11-23T19:51:37.121Z,47.83
2018-11-23T19:56:39.452Z,49.00
2018-11-23T20:01:41.850Z,48.40
2018-11-23T20:06:44.600Z,47.33
2018-11-23T20:11:47.021Z,50.70
2018-11-23T20:16:49.420Z,51.37
2018-11-23T20:21:51.818Z,48.27
2018-11-23T20:26:54.460Z,43.90
2018-11-23T20:31:57.488Z,50.30
2018-11-23T20:37:00.011Z,53.27
2018-11-23T20:42:02.410Z,51.07
2018-11-23T20:47:05.121Z,50.30
2018-11-23T20:52:07.495Z,49.03
2018-11-23T20:57:09.836Z,46.93
2018-11-23T21:02:12.866Z,47.73
2018-11-23T21:07:15.284Z,46.63
2018-11-23T21:12:18.488Z,49.43
2018-11-23T21:17:20.850Z,49.47
2018-11-23T21:22:23.239Z,55.10
2018-11-23T21:27:25.535Z,51.70
2018-11-23T21:32:28.012Z,49.93
2018-11-23T21:37:30.482Z,48.37
2018-11-23T21:42:32.912Z,51.37
2018-11-23T21:47:35.290Z,51.13
2018-11-23T21:52:37.655Z,54.03
2018-11-23T21:57:39.997Z,53.13
2018-11-23T22:02:43.165Z,48.80
2018-11-23T22:07:45.656Z,53.60
2018-11-23T22:12:48.107Z,57.13
2018-11-23T22:17:51.841Z,47.53
2018-11-23T22:22:54.212Z,45.77
2018-11-23T22:27:56.664Z,50.03
2018-11-23T22:32:59.265Z,46.93
2018-11-23T22:38:01.628Z,54.90
2018-11-23T22:43:04.253Z,50.33
2018-11-23T22:48:06.870Z,50.87
2018-11-23T22:53:09.213Z,55.37
2018-11-23T22:58:11.626Z,52.67
2018-11-23T23:03:14.086Z,52.27
2018-11-23T23:08:16.437Z,50.90
2018-11-23T23:13:19.580Z,50.63
2018-11-23T23:18:22.057Z,44.10
2018-11-23T23:23:24.456Z,44.63
2018-11-23T23:28:27.460Z,45.33
2018-11-23T23:33:30.074Z,46.23
2018-11-23T23:38:32.448Z,50.80
2018-11-23T23:43:34.749Z,49.43
2018-11-23T23:48:37.140Z,43.20
2018-11-23T23:53:39.458Z,46.37
2018-11-23T23:58:41.798Z,43.77
